Aviation Digital Data Service (ADDS)

Output produced by METARs form (2200 UTC 16 February 2019)
found at http://www.aviationweather.gov/metar/data/
 
METAR text: UTST 162130Z 27006KT 9999 SCT066CB 10/03 Q1009 R88/CLRD70 NOSIG
Conditions at: UTST (TERMEZ , UZ) observed 2130 UTC 16 February 2019
Temperature: 10.0°C (50°F)
Dewpoint: 3.0°C (37°F) [RH = 62%]
Pressure (altimeter): 29.79 inches Hg (1009.0 mb)
Winds: from the W (270 degrees) at 7 MPH (6 knots; 3.1 m/s)
Visibility: 6 or more miles (10+ km)
Ceiling: at least 12,000 feet AGL
Clouds: scattered clouds at 6600 feet AGL
Weather: no significant weather observed at this time

METAR text: UTST 162100Z 24002KT 9999 SCT066CB 10/03 Q1009 R88/CLRD70 NOSIG
Conditions at: UTST (TERMEZ , UZ) observed 2100 UTC 16 February 2019
Temperature: 10.0°C (50°F)
Dewpoint: 3.0°C (37°F) [RH = 62%]
Pressure (altimeter): 29.79 inches Hg (1009.0 mb)
Winds: from the WSW (240 degrees) at 2 MPH (2 knots; 1.0 m/s)
Visibility: 6 or more miles (10+ km)
Ceiling: at least 12,000 feet AGL
Clouds: scattered clouds at 6600 feet AGL
Weather: no significant weather observed at this time

METAR text: UTST 162030Z 25004KT 9999 SCT066CB 11/02 Q1009 R88/CLRD70 NOSIG
Conditions at: UTST (TERMEZ , UZ) observed 2030 UTC 16 February 2019
Temperature: 11.0°C (52°F)
Dewpoint: 2.0°C (36°F) [RH = 54%]
Pressure (altimeter): 29.79 inches Hg (1009.0 mb)
Winds: from the WSW (250 degrees) at 5 MPH (4 knots; 2.1 m/s)
Visibility: 6 or more miles (10+ km)
Ceiling: at least 12,000 feet AGL
Clouds: scattered clouds at 6600 feet AGL
Weather: no significant weather observed at this time

METAR text: UTST 162000Z 20004KT 9999 SCT066CB 11/02 Q1009 R88/CLRD70 NOSIG
Conditions at: UTST (TERMEZ , UZ) observed 2000 UTC 16 February 2019
Temperature: 11.0°C (52°F)
Dewpoint: 2.0°C (36°F) [RH = 54%]
Pressure (altimeter): 29.79 inches Hg (1009.0 mb)
Winds: from the SSW (200 degrees) at 5 MPH (4 knots; 2.1 m/s)
Visibility: 6 or more miles (10+ km)
Ceiling: at least 12,000 feet AGL
Clouds: scattered clouds at 6600 feet AGL
Weather: no significant weather observed at this time

METAR text: UTST 161930Z 20006KT 9999 SCT066CB 10/03 Q1009 R88/CLRD70 NOSIG
Conditions at: UTST (TERMEZ , UZ) observed 1930 UTC 16 February 2019
Temperature: 10.0°C (50°F)
Dewpoint: 3.0°C (37°F) [RH = 62%]
Pressure (altimeter): 29.79 inches Hg (1009.0 mb)
Winds: from the SSW (200 degrees) at 7 MPH (6 knots; 3.1 m/s)
Visibility: 6 or more miles (10+ km)
Ceiling: at least 12,000 feet AGL
Clouds: scattered clouds at 6600 feet AGL
Weather: no significant weather observed at this time

METAR text: UTST 161900Z 22006KT 9999 SCT066CB 10/03 Q1009 R88/CLRD70 NOSIG
Conditions at: UTST (TERMEZ , UZ) observed 1900 UTC 16 February 2019
Temperature: 10.0°C (50°F)
Dewpoint: 3.0°C (37°F) [RH = 62%]
Pressure (altimeter): 29.79 inches Hg (1009.0 mb)
Winds: from the SW (220 degrees) at 7 MPH (6 knots; 3.1 m/s)
Visibility: 6 or more miles (10+ km)
Ceiling: at least 12,000 feet AGL
Clouds: scattered clouds at 6600 feet AGL
Weather: no significant weather observed at this time

METAR text: UTST 161830Z VRB02KT 9999 SCT066CB 10/03 Q1009 R88/CLRD70 NOSIG
Conditions at: UTST (TERMEZ , UZ) observed 1830 UTC 16 February 2019
Temperature: 10.0°C (50°F)
Dewpoint: 3.0°C (37°F) [RH = 62%]
Pressure (altimeter): 29.79 inches Hg (1009.0 mb)
Winds: variable direction winds at 2 MPH (2 knots; 1.0 m/s)
Visibility: 6 or more miles (10+ km)
Ceiling: at least 12,000 feet AGL
Clouds: scattered clouds at 6600 feet AGL
Weather: no significant weather observed at this time

METAR text: UTST 161800Z 18002KT 9999 SCT066CB 10/02 Q1008 R88/CLRD70 NOSIG
Conditions at: UTST (TERMEZ , UZ) observed 1800 UTC 16 February 2019
Temperature: 10.0°C (50°F)
Dewpoint: 2.0°C (36°F) [RH = 57%]
Pressure (altimeter): 29.76 inches Hg (1008.0 mb)
Winds: from the S (180 degrees) at 2 MPH (2 knots; 1.0 m/s)
Visibility: 6 or more miles (10+ km)
Ceiling: at least 12,000 feet AGL
Clouds: scattered clouds at 6600 feet AGL
Weather: no significant weather observed at this time

METAR text: UTST 161730Z 25002KT 9999 FEW066CB 10/01 Q1008 R88/CLRD70 NOSIG
Conditions at: UTST (TERMEZ , UZ) observed 1730 UTC 16 February 2019
Temperature: 10.0°C (50°F)
Dewpoint: 1.0°C (34°F) [RH = 53%]
Pressure (altimeter): 29.76 inches Hg (1008.0 mb)
Winds: from the WSW (250 degrees) at 2 MPH (2 knots; 1.0 m/s)
Visibility: 6 or more miles (10+ km)
Ceiling: at least 12,000 feet AGL
Clouds: few clouds at 6600 feet AGL
Weather: no significant weather observed at this time

METAR text: UTST 161700Z 34002KT 9999 FEW066CB 10/01 Q1009 R88/CLRD70 NOSIG
Conditions at: UTST (TERMEZ , UZ) observed 1700 UTC 16 February 2019
Temperature: 10.0°C (50°F)
Dewpoint: 1.0°C (34°F) [RH = 53%]
Pressure (altimeter): 29.79 inches Hg (1009.0 mb)
Winds: from the NNW (340 degrees) at 2 MPH (2 knots; 1.0 m/s)
Visibility: 6 or more miles (10+ km)
Ceiling: at least 12,000 feet AGL
Clouds: few clouds at 6600 feet AGL
Weather: no significant weather observed at this time

METAR text: UTST 161630Z VRB02KT 9999 FEW066CB 11/01 Q1010 R88/CLRD70 NOSIG
Conditions at: UTST (TERMEZ , UZ) observed 1630 UTC 16 February 2019
Temperature: 11.0°C (52°F)
Dewpoint: 1.0°C (34°F) [RH = 50%]
Pressure (altimeter): 29.82 inches Hg (1010.0 mb)
Winds: variable direction winds at 2 MPH (2 knots; 1.0 m/s)
Visibility: 6 or more miles (10+ km)
Ceiling: at least 12,000 feet AGL
Clouds: few clouds at 6600 feet AGL
Weather: no significant weather observed at this time

METAR text: UTST 161600Z 15004KT 9999 FEW066CB 12/00 Q1010 R88/CLRD70 NOSIG
Conditions at: UTST (TERMEZ , UZ) observed 1600 UTC 16 February 2019
Temperature: 12.0°C (54°F)
Dewpoint: 0.0°C (32°F) [RH = 44%]
Pressure (altimeter): 29.82 inches Hg (1010.0 mb)
Winds: from the SSE (150 degrees) at 5 MPH (4 knots; 2.1 m/s)
Visibility: 6 or more miles (10+ km)
Ceiling: at least 12,000 feet AGL
Clouds: few clouds at 6600 feet AGL
Weather: no significant weather observed at this time

METAR text: UTST 161530Z VRB02KT 9999 FEW066CB 12/00 Q1010 R88/CLRD70 NOSIG
Conditions at: UTST (TERMEZ , UZ) observed 1530 UTC 16 February 2019
Temperature: 12.0°C (54°F)
Dewpoint: 0.0°C (32°F) [RH = 44%]
Pressure (altimeter): 29.82 inches Hg (1010.0 mb)
Winds: variable direction winds at 2 MPH (2 knots; 1.0 m/s)
Visibility: 6 or more miles (10+ km)
Ceiling: at least 12,000 feet AGL
Clouds: few clouds at 6600 feet AGL
Weather: no significant weather observed at this time

METAR text: UTST 161500Z 10008KT 9999 FEW066CB 12/01 Q1010 R88/CLRD70 NOSIG
Conditions at: UTST (TERMEZ , UZ) observed 1500 UTC 16 February 2019
Temperature: 12.0°C (54°F)
Dewpoint: 1.0°C (34°F) [RH = 47%]
Pressure (altimeter): 29.82 inches Hg (1010.0 mb)
Winds: from the E (100 degrees) at 9 MPH (8 knots; 4.1 m/s)
Visibility: 6 or more miles (10+ km)
Ceiling: at least 12,000 feet AGL
Clouds: few clouds at 6600 feet AGL
Weather: no significant weather observed at this time

METAR text: UTST 161430Z 06006KT 9999 FEW066CB 13/M01 Q1011 R88/CLRD70 NOSIG
Conditions at: UTST (TERMEZ , UZ) observed 1430 UTC 16 February 2019
Temperature: 13.0°C (55°F)
Dewpoint: -1.0°C (30°F) [RH = 38%]
Pressure (altimeter): 29.85 inches Hg (1011.0 mb)
Winds: from the ENE (60 degrees) at 7 MPH (6 knots; 3.1 m/s)
Visibility: 6 or more miles (10+ km)
Ceiling: at least 12,000 feet AGL
Clouds: few clouds at 6600 feet AGL
Weather: no significant weather observed at this time

METAR text: UTST 161400Z 05004KT 9999 FEW066CB 13/00 Q1011 R88/CLRD70 NOSIG
Conditions at: UTST (TERMEZ , UZ) observed 1400 UTC 16 February 2019
Temperature: 13.0°C (55°F)
Dewpoint: 0.0°C (32°F) [RH = 41%]
Pressure (altimeter): 29.85 inches Hg (1011.0 mb)
Winds: from the NE (50 degrees) at 5 MPH (4 knots; 2.1 m/s)
Visibility: 6 or more miles (10+ km)
Ceiling: at least 12,000 feet AGL
Clouds: few clouds at 6600 feet AGL
Weather: no significant weather observed at this time

METAR text: UTST 161330Z 04004KT 360V100 9999 FEW066CB 13/00 Q1012 R88/CLRD70 NOSIG
Conditions at: UTST (TERMEZ , UZ) observed 1330 UTC 16 February 2019
Temperature: 13.0°C (55°F)
Dewpoint: 0.0°C (32°F) [RH = 41%]
Pressure (altimeter): 29.88 inches Hg (1012.0 mb)
Winds: from the NE (40 degrees) at 5 MPH (4 knots; 2.1 m/s)
Visibility: 6 or more miles (10+ km)
Ceiling: at least 12,000 feet AGL
Clouds: few clouds at 6600 feet AGL
Weather: no significant weather observed at this time

METAR text: UTST 161300Z 11006KT 9999 FEW066CB 15/M01 Q1012 R88/CLRD70 NOSIG
Conditions at: UTST (TERMEZ , UZ) observed 1300 UTC 16 February 2019
Temperature: 15.0°C (59°F)
Dewpoint: -1.0°C (30°F) [RH = 33%]
Pressure (altimeter): 29.88 inches Hg (1012.0 mb)
Winds: from the ESE (110 degrees) at 7 MPH (6 knots; 3.1 m/s)
Visibility: 6 or more miles (10+ km)
Ceiling: at least 12,000 feet AGL
Clouds: few clouds at 6600 feet AGL
Weather: no significant weather observed at this time

METAR text: UTST 161230Z VRB02KT CAVOK 16/M03 Q1013 R88/CLRD70 NOSIG
Conditions at: UTST (TERMEZ , UZ) observed 1230 UTC 16 February 2019
Temperature: 16.0°C (61°F)
Dewpoint: -3.0°C (27°F) [RH = 27%]
Pressure (altimeter): 29.91 inches Hg (1013.0 mb)
Winds: variable direction winds at 2 MPH (2 knots; 1.0 m/s)
Visibility: 6 or more miles (10+ km)
Ceiling: ceiling and visibility are OK
Clouds: unknown
Weather: no significant weather observed at this time

METAR text: UTST 161200Z 07010KT CAVOK 17/M04 Q1013 R88/CLRD70 NOSIG
Conditions at: UTST (TERMEZ , UZ) observed 1200 UTC 16 February 2019
Temperature: 17.0°C (63°F)
Dewpoint: -4.0°C (25°F) [RH = 23%]
Pressure (altimeter): 29.91 inches Hg (1013.0 mb)
Winds: from the ENE (70 degrees) at 12 MPH (10 knots; 5.1 m/s)
Visibility: 6 or more miles (10+ km)
Ceiling: ceiling and visibility are OK
Clouds: unknown
Weather: no significant weather observed at this time

METAR text: UTST 161130Z 06012KT CAVOK 17/M04 Q1014 R88/CLRD70 NOSIG
Conditions at: UTST (TERMEZ , UZ) observed 1130 UTC 16 February 2019
Temperature: 17.0°C (63°F)
Dewpoint: -4.0°C (25°F) [RH = 23%]
Pressure (altimeter): 29.94 inches Hg (1014.0 mb)
Winds: from the ENE (60 degrees) at 14 MPH (12 knots; 6.2 m/s)
Visibility: 6 or more miles (10+ km)
Ceiling: ceiling and visibility are OK
Clouds: unknown
Weather: no significant weather observed at this time

METAR text: UTST 161100Z 06012KT CAVOK 18/M05 Q1014 R88/CLRD70 NOSIG
Conditions at: UTST (TERMEZ , UZ) observed 1100 UTC 16 February 2019
Temperature: 18.0°C (64°F)
Dewpoint: -5.0°C (23°F) [RH = 20%]
Pressure (altimeter): 29.94 inches Hg (1014.0 mb)
Winds: from the ENE (60 degrees) at 14 MPH (12 knots; 6.2 m/s)
Visibility: 6 or more miles (10+ km)
Ceiling: ceiling and visibility are OK
Clouds: unknown
Weather: no significant weather observed at this time

METAR text: UTST 161030Z 06012KT 030V090 CAVOK 18/M05 Q1015 R88/CLRD70 NOSIG
Conditions at: UTST (TERMEZ , UZ) observed 1030 UTC 16 February 2019
Temperature: 18.0°C (64°F)
Dewpoint: -5.0°C (23°F) [RH = 20%]
Pressure (altimeter): 29.97 inches Hg (1015.0 mb)
Winds: from the ENE (60 degrees) at 14 MPH (12 knots; 6.2 m/s)
Visibility: 6 or more miles (10+ km)
Ceiling: ceiling and visibility are OK
Clouds: unknown
Weather: no significant weather observed at this time

METAR text: UTST 161000Z 08012KT CAVOK 18/M04 Q1015 R88/CLRD70 NOSIG
Conditions at: UTST (TERMEZ , UZ) observed 1000 UTC 16 February 2019
Temperature: 18.0°C (64°F)
Dewpoint: -4.0°C (25°F) [RH = 22%]
Pressure (altimeter): 29.97 inches Hg (1015.0 mb)
Winds: from the E (80 degrees) at 14 MPH (12 knots; 6.2 m/s)
Visibility: 6 or more miles (10+ km)
Ceiling: ceiling and visibility are OK
Clouds: unknown
Weather: no significant weather observed at this time

METAR text: UTST 160930Z 09012KT CAVOK 17/M04 Q1016 R88/CLRD70 NOSIG
Conditions at: UTST (TERMEZ , UZ) observed 0930 UTC 16 February 2019
Temperature: 17.0°C (63°F)
Dewpoint: -4.0°C (25°F) [RH = 23%]
Pressure (altimeter): 30.00 inches Hg (1016.0 mb)
Winds: from the E (90 degrees) at 14 MPH (12 knots; 6.2 m/s)
Visibility: 6 or more miles (10+ km)
Ceiling: ceiling and visibility are OK
Clouds: unknown
Weather: no significant weather observed at this time

METAR text: UTST 160900Z 10012KT CAVOK 17/M03 Q1016 R88/CLRD70 NOSIG
Conditions at: UTST (TERMEZ , UZ) observed 0900 UTC 16 February 2019
Temperature: 17.0°C (63°F)
Dewpoint: -3.0°C (27°F) [RH = 25%]
Pressure (altimeter): 30.00 inches Hg (1016.0 mb)
Winds: from the E (100 degrees) at 14 MPH (12 knots; 6.2 m/s)
Visibility: 6 or more miles (10+ km)
Ceiling: ceiling and visibility are OK
Clouds: unknown
Weather: no significant weather observed at this time

METAR text: UTST 160830Z 06014KT CAVOK 17/M04 Q1017 R88/CLRD70 NOSIG
Conditions at: UTST (TERMEZ , UZ) observed 0830 UTC 16 February 2019
Temperature: 17.0°C (63°F)
Dewpoint: -4.0°C (25°F) [RH = 23%]
Pressure (altimeter): 30.03 inches Hg (1017.0 mb)
Winds: from the ENE (60 degrees) at 16 MPH (14 knots; 7.2 m/s)
Visibility: 6 or more miles (10+ km)
Ceiling: ceiling and visibility are OK
Clouds: unknown
Weather: no significant weather observed at this time

METAR text: UTST 160800Z 06014KT 040V100 CAVOK 17/M04 Q1018 R88/CLRD70 NOSIG
Conditions at: UTST (TERMEZ , UZ) observed 0800 UTC 16 February 2019
Temperature: 17.0°C (63°F)
Dewpoint: -4.0°C (25°F) [RH = 23%]
Pressure (altimeter): 30.06 inches Hg (1018.0 mb)
Winds: from the ENE (60 degrees) at 16 MPH (14 knots; 7.2 m/s)
Visibility: 6 or more miles (10+ km)
Ceiling: ceiling and visibility are OK
Clouds: unknown
Weather: no significant weather observed at this time

METAR text: UTST 160730Z 06016KT CAVOK 16/M05 Q1019 R88/CLRD70 NOSIG
Conditions at: UTST (TERMEZ , UZ) observed 0730 UTC 16 February 2019
Temperature: 16.0°C (61°F)
Dewpoint: -5.0°C (23°F) [RH = 23%]
Pressure (altimeter): 30.09 inches Hg (1019.0 mb)
Winds: from the ENE (60 degrees) at 18 MPH (16 knots; 8.2 m/s)
Visibility: 6 or more miles (10+ km)
Ceiling: ceiling and visibility are OK
Clouds: unknown
Weather: no significant weather observed at this time

METAR text: UTST 160700Z 03014KT CAVOK 16/M05 Q1019 R88/CLRD70 NOSIG
Conditions at: UTST (TERMEZ , UZ) observed 0700 UTC 16 February 2019
Temperature: 16.0°C (61°F)
Dewpoint: -5.0°C (23°F) [RH = 23%]
Pressure (altimeter): 30.09 inches Hg (1019.0 mb)
Winds: from the NNE (30 degrees) at 16 MPH (14 knots; 7.2 m/s)
Visibility: 6 or more miles (10+ km)
Ceiling: ceiling and visibility are OK
Clouds: unknown
Weather: no significant weather observed at this time

METAR text: UTST 160630Z 03012KT CAVOK 14/M01 Q1020 R88/CLRD70 NOSIG
Conditions at: UTST (TERMEZ , UZ) observed 0630 UTC 16 February 2019
Temperature: 14.0°C (57°F)
Dewpoint: -1.0°C (30°F) [RH = 36%]
Pressure (altimeter): 30.12 inches Hg (1020.0 mb)
Winds: from the NNE (30 degrees) at 14 MPH (12 knots; 6.2 m/s)
Visibility: 6 or more miles (10+ km)
Ceiling: ceiling and visibility are OK
Clouds: unknown
Weather: no significant weather observed at this time

METAR text: UTST 160600Z 05008KT 020V090 CAVOK 13/M01 Q1020 R88/CLRD70 NOSIG
Conditions at: UTST (TERMEZ , UZ) observed 0600 UTC 16 February 2019
Temperature: 13.0°C (55°F)
Dewpoint: -1.0°C (30°F) [RH = 38%]
Pressure (altimeter): 30.12 inches Hg (1020.0 mb)
Winds: from the NE (50 degrees) at 9 MPH (8 knots; 4.1 m/s)
Visibility: 6 or more miles (10+ km)
Ceiling: ceiling and visibility are OK
Clouds: unknown
Weather: no significant weather observed at this time

METAR text: UTST 160530Z 02006KT CAVOK 11/M02 Q1021 R88/CLRD70 NOSIG
Conditions at: UTST (TERMEZ , UZ) observed 0530 UTC 16 February 2019
Temperature: 11.0°C (52°F)
Dewpoint: -2.0°C (28°F) [RH = 40%]
Pressure (altimeter): 30.15 inches Hg (1021.0 mb)
Winds: from the NNE (20 degrees) at 7 MPH (6 knots; 3.1 m/s)
Visibility: 6 or more miles (10+ km)
Ceiling: ceiling and visibility are OK
Clouds: unknown
Weather: no significant weather observed at this time

METAR text: UTST 160500Z 02004KT 350V050 CAVOK 09/00 Q1021 R88/CLRD70 NOSIG
Conditions at: UTST (TERMEZ , UZ) observed 0500 UTC 16 February 2019
Temperature: 9.0°C (48°F)
Dewpoint: 0.0°C (32°F) [RH = 53%]
Pressure (altimeter): 30.15 inches Hg (1021.0 mb)
Winds: from the NNE (20 degrees) at 5 MPH (4 knots; 2.1 m/s)
Visibility: 6 or more miles (10+ km)
Ceiling: ceiling and visibility are OK
Clouds: unknown
Weather: no significant weather observed at this time

METAR text: UTST 160430Z 04002KT CAVOK 08/M02 Q1022 R88/CLRD70 NOSIG
Conditions at: UTST (TERMEZ , UZ) observed 0430 UTC 16 February 2019
Temperature: 8.0°C (46°F)
Dewpoint: -2.0°C (28°F) [RH = 49%]
Pressure (altimeter): 30.18 inches Hg (1022.0 mb)
Winds: from the NE (40 degrees) at 2 MPH (2 knots; 1.0 m/s)
Visibility: 6 or more miles (10+ km)
Ceiling: ceiling and visibility are OK
Clouds: unknown
Weather: no significant weather observed at this time

METAR text: UTST 160400Z 04004KT CAVOK 06/M01 Q1022 R88/CLRD70 NOSIG
Conditions at: UTST (TERMEZ , UZ) observed 0400 UTC 16 February 2019
Temperature: 6.0°C (43°F)
Dewpoint: -1.0°C (30°F) [RH = 61%]
Pressure (altimeter): 30.18 inches Hg (1022.0 mb)
Winds: from the NE (40 degrees) at 5 MPH (4 knots; 2.1 m/s)
Visibility: 6 or more miles (10+ km)
Ceiling: ceiling and visibility are OK
Clouds: unknown
Weather: no significant weather observed at this time

METAR text: UTST 160330Z 05004KT CAVOK 04/M01 Q1022 R88/CLRD70 NOSIG
Conditions at: UTST (TERMEZ , UZ) observed 0330 UTC 16 February 2019
Temperature: 4.0°C (39°F)
Dewpoint: -1.0°C (30°F) [RH = 70%]
Pressure (altimeter): 30.18 inches Hg (1022.0 mb)
Winds: from the NE (50 degrees) at 5 MPH (4 knots; 2.1 m/s)
Visibility: 6 or more miles (10+ km)
Ceiling: ceiling and visibility are OK
Clouds: unknown
Weather: no significant weather observed at this time

METAR text: UTST 160300Z 04006KT CAVOK 03/M02 Q1021 R88/CLRD70 NOSIG
Conditions at: UTST (TERMEZ , UZ) observed 0300 UTC 16 February 2019
Temperature: 3.0°C (37°F)
Dewpoint: -2.0°C (28°F) [RH = 70%]
Pressure (altimeter): 30.15 inches Hg (1021.0 mb)
Winds: from the NE (40 degrees) at 7 MPH (6 knots; 3.1 m/s)
Visibility: 6 or more miles (10+ km)
Ceiling: ceiling and visibility are OK
Clouds: unknown
Weather: no significant weather observed at this time

METAR text: UTST 160230Z 03006KT CAVOK 02/M02 Q1021 R88/CLRD70 NOSIG
Conditions at: UTST (TERMEZ , UZ) observed 0230 UTC 16 February 2019
Temperature: 2.0°C (36°F)
Dewpoint: -2.0°C (28°F) [RH = 75%]
Pressure (altimeter): 30.15 inches Hg (1021.0 mb)
Winds: from the NNE (30 degrees) at 7 MPH (6 knots; 3.1 m/s)
Visibility: 6 or more miles (10+ km)
Ceiling: ceiling and visibility are OK
Clouds: unknown
Weather: no significant weather observed at this time

METAR text: UTST 160200Z 04006KT CAVOK 00/M03 Q1021 R88/CLRD70 NOSIG
Conditions at: UTST (TERMEZ , UZ) observed 0200 UTC 16 February 2019
Temperature: 0.0°C (32°F)
Dewpoint: -3.0°C (27°F) [RH = 80%]
Pressure (altimeter): 30.15 inches Hg (1021.0 mb)
Winds: from the NE (40 degrees) at 7 MPH (6 knots; 3.1 m/s)
Visibility: 6 or more miles (10+ km)
Ceiling: ceiling and visibility are OK
Clouds: unknown
Weather: no significant weather observed at this time

METAR text: UTST 160130Z 05006KT CAVOK 01/M03 Q1021 R88/CLRD70 NOSIG
Conditions at: UTST (TERMEZ , UZ) observed 0130 UTC 16 February 2019
Temperature: 1.0°C (34°F)
Dewpoint: -3.0°C (27°F) [RH = 75%]
Pressure (altimeter): 30.15 inches Hg (1021.0 mb)
Winds: from the NE (50 degrees) at 7 MPH (6 knots; 3.1 m/s)
Visibility: 6 or more miles (10+ km)
Ceiling: ceiling and visibility are OK
Clouds: unknown
Weather: no significant weather observed at this time

METAR text: UTST 160100Z 06004KT 030V120 CAVOK 01/M02 Q1022 R88/CLRD70 NOSIG
Conditions at: UTST (TERMEZ , UZ) observed 0100 UTC 16 February 2019
Temperature: 1.0°C (34°F)
Dewpoint: -2.0°C (28°F) [RH = 80%]
Pressure (altimeter): 30.18 inches Hg (1022.0 mb)
Winds: from the ENE (60 degrees) at 5 MPH (4 knots; 2.1 m/s)
Visibility: 6 or more miles (10+ km)
Ceiling: ceiling and visibility are OK
Clouds: unknown
Weather: no significant weather observed at this time

METAR text: UTST 160030Z 05004KT CAVOK 01/M02 Q1022 R88/CLRD70 NOSIG
Conditions at: UTST (TERMEZ , UZ) observed 0030 UTC 16 February 2019
Temperature: 1.0°C (34°F)
Dewpoint: -2.0°C (28°F) [RH = 80%]
Pressure (altimeter): 30.18 inches Hg (1022.0 mb)
Winds: from the NE (50 degrees) at 5 MPH (4 knots; 2.1 m/s)
Visibility: 6 or more miles (10+ km)
Ceiling: ceiling and visibility are OK
Clouds: unknown
Weather: no significant weather observed at this time

METAR text: UTST 160000Z 08004KT CAVOK 02/M01 Q1022 R88/CLRD70 NOSIG
Conditions at: UTST (TERMEZ , UZ) observed 0000 UTC 16 February 2019
Temperature: 2.0°C (36°F)
Dewpoint: -1.0°C (30°F) [RH = 80%]
Pressure (altimeter): 30.18 inches Hg (1022.0 mb)
Winds: from the E (80 degrees) at 5 MPH (4 knots; 2.1 m/s)
Visibility: 6 or more miles (10+ km)
Ceiling: ceiling and visibility are OK
Clouds: unknown
Weather: no significant weather observed at this time

METAR text: UTST 152330Z 09006KT CAVOK 01/M01 Q1022 R88/CLRD70 NOSIG
Conditions at: UTST (TERMEZ , UZ) observed 2330 UTC 15 February 2019
Temperature: 1.0°C (34°F)
Dewpoint: -1.0°C (30°F) [RH = 86%]
Pressure (altimeter): 30.18 inches Hg (1022.0 mb)
Winds: from the E (90 degrees) at 7 MPH (6 knots; 3.1 m/s)
Visibility: 6 or more miles (10+ km)
Ceiling: ceiling and visibility are OK
Clouds: unknown
Weather: no significant weather observed at this time

METAR text: UTST 152300Z 07006KT CAVOK 02/M01 Q1022 R88/CLRD70 NOSIG
Conditions at: UTST (TERMEZ , UZ) observed 2300 UTC 15 February 2019
Temperature: 2.0°C (36°F)
Dewpoint: -1.0°C (30°F) [RH = 80%]
Pressure (altimeter): 30.18 inches Hg (1022.0 mb)
Winds: from the ENE (70 degrees) at 7 MPH (6 knots; 3.1 m/s)
Visibility: 6 or more miles (10+ km)
Ceiling: ceiling and visibility are OK
Clouds: unknown
Weather: no significant weather observed at this time

METAR text: UTST 152230Z 04006KT CAVOK 02/M01 Q1022 R88/CLRD70 NOSIG
Conditions at: UTST (TERMEZ , UZ) observed 2230 UTC 15 February 2019
Temperature: 2.0°C (36°F)
Dewpoint: -1.0°C (30°F) [RH = 80%]
Pressure (altimeter): 30.18 inches Hg (1022.0 mb)
Winds: from the NE (40 degrees) at 7 MPH (6 knots; 3.1 m/s)
Visibility: 6 or more miles (10+ km)
Ceiling: ceiling and visibility are OK
Clouds: unknown
Weather: no significant weather observed at this time

METAR text: UTST 152200Z 03004KT CAVOK 03/M00 Q1022 R88/CLRD70 NOSIG
Conditions at: UTST (TERMEZ , UZ) observed 2200 UTC 15 February 2019
Temperature: 3.0°C (37°F)
Dewpoint: 0.0°C (32°F) [RH = 81%]
Pressure (altimeter): 30.18 inches Hg (1022.0 mb)
Winds: from the NNE (30 degrees) at 5 MPH (4 knots; 2.1 m/s)
Visibility: 6 or more miles (10+ km)
Ceiling: ceiling and visibility are OK
Clouds: unknown
Weather: no significant weather observed at this time

METAR text: UTST 152130Z 02006KT CAVOK 03/M00 Q1022 R88/CLRD70 NOSIG
Conditions at: UTST (TERMEZ , UZ) observed 2130 UTC 15 February 2019
Temperature: 3.0°C (37°F)
Dewpoint: 0.0°C (32°F) [RH = 81%]
Pressure (altimeter): 30.18 inches Hg (1022.0 mb)
Winds: from the NNE (20 degrees) at 7 MPH (6 knots; 3.1 m/s)
Visibility: 6 or more miles (10+ km)
Ceiling: ceiling and visibility are OK
Clouds: unknown
Weather: no significant weather observed at this time

METAR text: UTST 152100Z 03006KT CAVOK 04/M00 Q1022 R88/CLRD70 NOSIG
Conditions at: UTST (TERMEZ , UZ) observed 2100 UTC 15 February 2019
Temperature: 4.0°C (39°F)
Dewpoint: 0.0°C (32°F) [RH = 75%]
Pressure (altimeter): 30.18 inches Hg (1022.0 mb)
Winds: from the NNE (30 degrees) at 7 MPH (6 knots; 3.1 m/s)
Visibility: 6 or more miles (10+ km)
Ceiling: ceiling and visibility are OK
Clouds: unknown
Weather: no significant weather observed at this time

METAR text: UTST 152030Z 03004KT CAVOK 03/00 Q1023 R88/CLRD70 NOSIG
Conditions at: UTST (TERMEZ , UZ) observed 2030 UTC 15 February 2019
Temperature: 3.0°C (37°F)
Dewpoint: 0.0°C (32°F) [RH = 81%]
Pressure (altimeter): 30.21 inches Hg (1023.0 mb)
Winds: from the NNE (30 degrees) at 5 MPH (4 knots; 2.1 m/s)
Visibility: 6 or more miles (10+ km)
Ceiling: ceiling and visibility are OK
Clouds: unknown
Weather: no significant weather observed at this time

METAR text: UTST 152000Z 03006KT CAVOK 04/00 Q1023 R88/CLRD70 NOSIG
Conditions at: UTST (TERMEZ , UZ) observed 2000 UTC 15 February 2019
Temperature: 4.0°C (39°F)
Dewpoint: 0.0°C (32°F) [RH = 75%]
Pressure (altimeter): 30.21 inches Hg (1023.0 mb)
Winds: from the NNE (30 degrees) at 7 MPH (6 knots; 3.1 m/s)
Visibility: 6 or more miles (10+ km)
Ceiling: ceiling and visibility are OK
Clouds: unknown
Weather: no significant weather observed at this time

METAR text: UTST 151930Z 04006KT CAVOK 04/00 Q1023 R88/CLRD70 NOSIG
Conditions at: UTST (TERMEZ , UZ) observed 1930 UTC 15 February 2019
Temperature: 4.0°C (39°F)
Dewpoint: 0.0°C (32°F) [RH = 75%]
Pressure (altimeter): 30.21 inches Hg (1023.0 mb)
Winds: from the NE (40 degrees) at 7 MPH (6 knots; 3.1 m/s)
Visibility: 6 or more miles (10+ km)
Ceiling: ceiling and visibility are OK
Clouds: unknown
Weather: no significant weather observed at this time

METAR text: UTST 151900Z VRB02KT CAVOK 04/00 Q1023 R88/CLRD70 NOSIG
Conditions at: UTST (TERMEZ , UZ) observed 1900 UTC 15 February 2019
Temperature: 4.0°C (39°F)
Dewpoint: 0.0°C (32°F) [RH = 75%]
Pressure (altimeter): 30.21 inches Hg (1023.0 mb)
Winds: variable direction winds at 2 MPH (2 knots; 1.0 m/s)
Visibility: 6 or more miles (10+ km)
Ceiling: ceiling and visibility are OK
Clouds: unknown
Weather: no significant weather observed at this time

METAR text: UTST 151830Z 03006KT CAVOK 04/00 Q1023 R88/CLRD70 NOSIG
Conditions at: UTST (TERMEZ , UZ) observed 1830 UTC 15 February 2019
Temperature: 4.0°C (39°F)
Dewpoint: 0.0°C (32°F) [RH = 75%]
Pressure (altimeter): 30.21 inches Hg (1023.0 mb)
Winds: from the NNE (30 degrees) at 7 MPH (6 knots; 3.1 m/s)
Visibility: 6 or more miles (10+ km)
Ceiling: ceiling and visibility are OK
Clouds: unknown
Weather: no significant weather observed at this time

METAR text: UTST 151800Z 04006KT CAVOK 05/00 Q1024 R88/CLRD70 NOSIG
Conditions at: UTST (TERMEZ , UZ) observed 1800 UTC 15 February 2019
Temperature: 5.0°C (41°F)
Dewpoint: 0.0°C (32°F) [RH = 70%]
Pressure (altimeter): 30.24 inches Hg (1024.0 mb)
Winds: from the NE (40 degrees) at 7 MPH (6 knots; 3.1 m/s)
Visibility: 6 or more miles (10+ km)
Ceiling: ceiling and visibility are OK
Clouds: unknown
Weather: no significant weather observed at this time

METAR text: UTST 151730Z 04006KT CAVOK 05/01 Q1024 R88/CLRD70 NOSIG
Conditions at: UTST (TERMEZ , UZ) observed 1730 UTC 15 February 2019
Temperature: 5.0°C (41°F)
Dewpoint: 1.0°C (34°F) [RH = 75%]
Pressure (altimeter): 30.24 inches Hg (1024.0 mb)
Winds: from the NE (40 degrees) at 7 MPH (6 knots; 3.1 m/s)
Visibility: 6 or more miles (10+ km)
Ceiling: ceiling and visibility are OK
Clouds: unknown
Weather: no significant weather observed at this time

METAR text: UTST 151700Z 04006KT CAVOK 05/01 Q1024 R88/CLRD70 NOSIG
Conditions at: UTST (TERMEZ , UZ) observed 1700 UTC 15 February 2019
Temperature: 5.0°C (41°F)
Dewpoint: 1.0°C (34°F) [RH = 75%]
Pressure (altimeter): 30.24 inches Hg (1024.0 mb)
Winds: from the NE (40 degrees) at 7 MPH (6 knots; 3.1 m/s)
Visibility: 6 or more miles (10+ km)
Ceiling: ceiling and visibility are OK
Clouds: unknown
Weather: no significant weather observed at this time

METAR text: UTST 151630Z 06002KT CAVOK 06/01 Q1024 R88/CLRD70 NOSIG
Conditions at: UTST (TERMEZ , UZ) observed 1630 UTC 15 February 2019
Temperature: 6.0°C (43°F)
Dewpoint: 1.0°C (34°F) [RH = 70%]
Pressure (altimeter): 30.24 inches Hg (1024.0 mb)
Winds: from the ENE (60 degrees) at 2 MPH (2 knots; 1.0 m/s)
Visibility: 6 or more miles (10+ km)
Ceiling: ceiling and visibility are OK
Clouds: unknown
Weather: no significant weather observed at this time

METAR text: UTST 151600Z 06006KT CAVOK 07/01 Q1024 R88/CLRD70 NOSIG
Conditions at: UTST (TERMEZ , UZ) observed 1600 UTC 15 February 2019
Temperature: 7.0°C (45°F)
Dewpoint: 1.0°C (34°F) [RH = 66%]
Pressure (altimeter): 30.24 inches Hg (1024.0 mb)
Winds: from the ENE (60 degrees) at 7 MPH (6 knots; 3.1 m/s)
Visibility: 6 or more miles (10+ km)
Ceiling: ceiling and visibility are OK
Clouds: unknown
Weather: no significant weather observed at this time

METAR text: UTST 151530Z 05006KT CAVOK 06/02 Q1024 R88/CLRD70 NOSIG
Conditions at: UTST (TERMEZ , UZ) observed 1530 UTC 15 February 2019
Temperature: 6.0°C (43°F)
Dewpoint: 2.0°C (36°F) [RH = 75%]
Pressure (altimeter): 30.24 inches Hg (1024.0 mb)
Winds: from the NE (50 degrees) at 7 MPH (6 knots; 3.1 m/s)
Visibility: 6 or more miles (10+ km)
Ceiling: ceiling and visibility are OK
Clouds: unknown
Weather: no significant weather observed at this time

METAR text: UTST 151500Z 07004KT CAVOK 07/02 Q1024 R88/CLRD70 NOSIG
Conditions at: UTST (TERMEZ , UZ) observed 1500 UTC 15 February 2019
Temperature: 7.0°C (45°F)
Dewpoint: 2.0°C (36°F) [RH = 70%]
Pressure (altimeter): 30.24 inches Hg (1024.0 mb)
Winds: from the ENE (70 degrees) at 5 MPH (4 knots; 2.1 m/s)
Visibility: 6 or more miles (10+ km)
Ceiling: ceiling and visibility are OK
Clouds: unknown
Weather: no significant weather observed at this time

METAR text: UTST 151430Z 09006KT CAVOK 08/02 Q1024 R88/CLRD70 NOSIG
Conditions at: UTST (TERMEZ , UZ) observed 1430 UTC 15 February 2019
Temperature: 8.0°C (46°F)
Dewpoint: 2.0°C (36°F) [RH = 66%]
Pressure (altimeter): 30.24 inches Hg (1024.0 mb)
Winds: from the E (90 degrees) at 7 MPH (6 knots; 3.1 m/s)
Visibility: 6 or more miles (10+ km)
Ceiling: ceiling and visibility are OK
Clouds: unknown
Weather: no significant weather observed at this time

METAR text: UTST 151400Z 11006KT CAVOK 09/02 Q1024 R88/CLRD70 NOSIG
Conditions at: UTST (TERMEZ , UZ) observed 1400 UTC 15 February 2019
Temperature: 9.0°C (48°F)
Dewpoint: 2.0°C (36°F) [RH = 61%]
Pressure (altimeter): 30.24 inches Hg (1024.0 mb)
Winds: from the ESE (110 degrees) at 7 MPH (6 knots; 3.1 m/s)
Visibility: 6 or more miles (10+ km)
Ceiling: ceiling and visibility are OK
Clouds: unknown
Weather: no significant weather observed at this time

METAR text: UTST 151330Z 12006KT CAVOK 10/02 Q1024 R88/CLRD70 NOSIG
Conditions at: UTST (TERMEZ , UZ) observed 1330 UTC 15 February 2019
Temperature: 10.0°C (50°F)
Dewpoint: 2.0°C (36°F) [RH = 57%]
Pressure (altimeter): 30.24 inches Hg (1024.0 mb)
Winds: from the ESE (120 degrees) at 7 MPH (6 knots; 3.1 m/s)
Visibility: 6 or more miles (10+ km)
Ceiling: ceiling and visibility are OK
Clouds: unknown
Weather: no significant weather observed at this time

METAR text: UTST 151300Z 11006KT CAVOK 11/01 Q1024 R88/CLRD70 NOSIG
Conditions at: UTST (TERMEZ , UZ) observed 1300 UTC 15 February 2019
Temperature: 11.0°C (52°F)
Dewpoint: 1.0°C (34°F) [RH = 50%]
Pressure (altimeter): 30.24 inches Hg (1024.0 mb)
Winds: from the ESE (110 degrees) at 7 MPH (6 knots; 3.1 m/s)
Visibility: 6 or more miles (10+ km)
Ceiling: ceiling and visibility are OK
Clouds: unknown
Weather: no significant weather observed at this time

METAR text: UTST 151230Z 09006KT CAVOK 12/01 Q1024 R88/CLRD70 NOSIG
Conditions at: UTST (TERMEZ , UZ) observed 1230 UTC 15 February 2019
Temperature: 12.0°C (54°F)
Dewpoint: 1.0°C (34°F) [RH = 47%]
Pressure (altimeter): 30.24 inches Hg (1024.0 mb)
Winds: from the E (90 degrees) at 7 MPH (6 knots; 3.1 m/s)
Visibility: 6 or more miles (10+ km)
Ceiling: ceiling and visibility are OK
Clouds: unknown
Weather: no significant weather observed at this time

METAR text: UTST 151200Z 07006KT CAVOK 12/M00 Q1024 R88/CLRD70 NOSIG
Conditions at: UTST (TERMEZ , UZ) observed 1200 UTC 15 February 2019
Temperature: 12.0°C (54°F)
Dewpoint: 0.0°C (32°F) [RH = 44%]
Pressure (altimeter): 30.24 inches Hg (1024.0 mb)
Winds: from the ENE (70 degrees) at 7 MPH (6 knots; 3.1 m/s)
Visibility: 6 or more miles (10+ km)
Ceiling: ceiling and visibility are OK
Clouds: unknown
Weather: no significant weather observed at this time

METAR text: UTST 151130Z 07006KT 030V110 CAVOK 13/M00 Q1024 R88/CLRD70 NOSIG
Conditions at: UTST (TERMEZ , UZ) observed 1130 UTC 15 February 2019
Temperature: 13.0°C (55°F)
Dewpoint: 0.0°C (32°F) [RH = 41%]
Pressure (altimeter): 30.24 inches Hg (1024.0 mb)
Winds: from the ENE (70 degrees) at 7 MPH (6 knots; 3.1 m/s)
Visibility: 6 or more miles (10+ km)
Ceiling: ceiling and visibility are OK
Clouds: unknown
Weather: no significant weather observed at this time

METAR text: UTST 151100Z 05008KT 020V100 CAVOK 13/M00 Q1024 R88/CLRD70 NOSIG
Conditions at: UTST (TERMEZ , UZ) observed 1100 UTC 15 February 2019
Temperature: 13.0°C (55°F)
Dewpoint: 0.0°C (32°F) [RH = 41%]
Pressure (altimeter): 30.24 inches Hg (1024.0 mb)
Winds: from the NE (50 degrees) at 9 MPH (8 knots; 4.1 m/s)
Visibility: 6 or more miles (10+ km)
Ceiling: ceiling and visibility are OK
Clouds: unknown
Weather: no significant weather observed at this time

METAR text: UTST 151030Z 08008KT 050V120 CAVOK 13/M00 Q1024 R88/CLRD70 NOSIG
Conditions at: UTST (TERMEZ , UZ) observed 1030 UTC 15 February 2019
Temperature: 13.0°C (55°F)
Dewpoint: 0.0°C (32°F) [RH = 41%]
Pressure (altimeter): 30.24 inches Hg (1024.0 mb)
Winds: from the E (80 degrees) at 9 MPH (8 knots; 4.1 m/s)
Visibility: 6 or more miles (10+ km)
Ceiling: ceiling and visibility are OK
Clouds: unknown
Weather: no significant weather observed at this time

Forecast for: UTST (TERMEZ , UZ)
Text: TAF UTST 161700Z 1618/1718 VRB06KT 5000 HZ SCT050CB BKN100
Forecast period: 1800 UTC 16 February 2019 to 1800 UTC 17 February 2019
Forecast type: FROM: standard forecast or significant change
Winds: variable direction winds at 7 MPH (6 knots; 3.1 m/s)
Visibility: 3 miles (5 km)
Ceiling: 10000 feet AGL
Clouds: scattered clouds at 5000 feet AGL
broken clouds at 10000 feet AGL
Weather: HZ  (haze)
Text: TEMPO 1618/1624 VRB21G31KT 1000 TSRA SQ DS BKN002 BKN040CB OVC100
Forecast period: 1800 UTC 16 February 2019 to 0000 UTC 17 February 2019
Forecast type: TEMPORARY: The following changes expected for less than half the time period
Winds: variable direction winds at 24 MPH (21 knots; 10.8 m/s)
gusting to 36 MPH (31 knots; 15.9 m/s)
Visibility: 0.62 miles (1.00 km)
Ceiling: 200 feet AGL
Clouds: broken clouds at 200 feet AGL
broken clouds at 4000 feet AGL
overcast cloud deck at 10000 feet AGL
Weather: TSRA SQ DS  (rain associated with thunderstorm(s), squal, duststorm)
Text: TEMPO 1700/1711 24023G33KT 1500 TSRA DS BKN003 OVC033CB
Forecast period: 0000 to 1100 UTC 17 February 2019
Forecast type: TEMPORARY: The following changes expected for less than half the time period
Winds: from the WSW (240 degrees) at 26 MPH (23 knots; 11.8 m/s)
gusting to 38 MPH (33 knots; 17.0 m/s)
Visibility: 0.93 miles (1.50 km)
Ceiling: 300 feet AGL
Clouds: broken clouds at 300 feet AGL
overcast cloud deck at 3300 feet AGL
Weather: TSRA DS  (rain associated with thunderstorm(s), duststorm)